Ely, Nevada Weather observations

Data are for observation ending at time listed.
 Day   Time    Ave.   Ave.  Ave.  Vector   Max.   Stn.    Total    Solar   Ave.  
  of    of     Air    Rel.  Wind   Wind    Wind   Baro.  Precip.   Rad.    Soil  
Year   Day     Temp.  Hum.  Speed  Dir.    Gust   Pres.                    Temp. 
2015   (PST)    F      %     mph   deg.    mph     mb.     in.     W/m2     F   
------------------------------------------------------------------------------
 242    5:20   63.4    32    9.8   187     14.1   810.2    0.00       7    67.3
 242    5:30   64.3    32    8.3   171     14.2   810.4    0.00       7    67.2
 242    5:40   64.0    32    8.4   168     14.4   810.5    0.00      18    67.1
 242    5:50   63.1    34    9.9   175     14.5   810.5    0.00      31    67.1
 242    6:00   63.6    34   10.4   188     15.5   810.6    0.00     120    67.0
 242    6:10   65.2    32    9.6   182     13.8   810.7    0.00     168    66.9
 242    6:20   66.3    31    9.2   176     13.7   810.7    0.00     203    66.8
 242    6:30   66.8    31    7.9   168     12.1   810.7    0.00     152    67.0
 242    6:40   66.6    32    7.7   171     11.9   810.7    0.00     277    67.2
 242    6:50   67.6    31    8.9   174     13.5   810.6    0.00     318    67.3
 242    7:00   68.8    30    8.7   167     13.3   810.7    0.00     357    67.4
 242    7:10   70.2    30    7.6   167     12.5   810.6    0.00     398    67.6
 242    7:20   72.5    27    7.9   168     15.3   810.6    0.00     436    67.9
 242    7:30   75.1    22   12.0   153     17.0   810.5    0.00     488    68.2
 242    7:40   75.8    21   13.8   140     21.5   810.4    0.00     501    68.7
 242    7:50   75.9    21   15.2   145     22.1   810.4    0.00     475    69.3
 242    8:00   75.8    21   14.0   153     20.8   810.4    0.00     493    69.8
 242    8:10   76.1    21   12.7   152     21.8   810.4    0.00     507    70.2
 242    8:20   77.3    19   15.1   180     22.7   810.4    0.00     625    70.7
 242    8:30   78.0    18   17.4   207     22.9   810.4    0.00     720    71.2
 242    8:40   78.5    17   16.4   206     23.9   810.3    0.00     758    71.5
 242    8:50   78.8    16   17.5   195     25.4   810.3    0.00     778    71.9
 242    9:00   79.4    16   15.6   201     22.6   810.3    0.00     805    72.3
 242    9:10   79.8    16   16.1   196     23.8   810.3    0.00     833    72.7
 242    9:20   80.0    16   15.4   186     21.9   810.2    0.00     857    73.1
 242    9:30   79.1    17   15.7   155     21.4   810.2    0.00     867    73.6
 242    9:40   80.0    16   16.0   186     26.1   810.3    0.00     875    74.0
 242    9:50   80.2    16   18.1   185     26.6   810.3    0.00     681    74.4
 242   10:00   80.1    16   17.5   190     24.0   810.3    0.00     806    74.7
 242   10:10   81.2    15   18.9   200     24.2   810.3    0.00     935    75.0
 242   10:20   80.7    15   17.0   188     27.5   810.3    0.00     936    75.4
 242   10:30   81.0    14   16.4   194     26.0   810.2    0.00     963    75.8
 242   10:40   80.4    15   14.4   182     32.8   810.1    0.00     939    76.1
 242   10:50   81.9    13   17.1   204     26.9   810.0    0.00     984    76.6
 242   11:00   81.6    14   16.0   189     26.7   810.0    0.00    1022    77.0
 242   11:10   81.8    13   18.3   198     25.9   809.9    0.00    1023    77.4
 242   11:20   81.5    14   13.2   181     23.3   809.7    0.00    1060    77.8
 242   11:30   81.9    14    9.6   168     16.1   809.7    0.00    1072    78.3
 242   11:40   82.2    14    9.1   174     23.1   809.5    0.00     726    78.6
 242   11:50   82.1    14   12.5   171     22.6   809.5    0.00     904    78.8
 242   12:00   81.7    14   11.1   159     20.5   809.4    0.00    1034    79.1
 242   12:10   82.7    13   15.1   189     25.5   809.4    0.00     452    79.4
 242   12:20   82.5    13   12.4   202     20.9   809.3    0.00     636    79.5
 242   12:30   83.0    13   16.6   197     23.6   809.3    0.00     554    79.6
 242   12:40   82.0    13   11.4   186     18.3   809.2    0.00     366    79.6
 242   12:50   81.7    13   12.4   170     24.5   809.1    0.00     565    79.6
 242   13:00   82.5    13   14.3   180     21.9   809.1    0.00     714    79.8
 242   13:10   83.6    12   14.2   204     22.2   809.0    0.00     614    80.0
 242   13:20   83.7    12   14.3   208     22.6   808.9    0.00     650    80.3
 242   13:30   83.9    11   16.9   205     25.3   808.9    0.00     816    80.5
 242   13:40   84.7    11   19.8   196     27.3   808.9    0.00     785    80.8
 242   13:50   84.2    11   13.8   209     26.1   808.8    0.00     986    81.1
 242   14:00   84.6    12   14.7   199     25.7   808.8    0.00     926    81.6
 242   14:10   84.6    12   11.5   187     18.3   808.6    0.00     901    82.0
 242   14:20   84.1    12   12.8   182     24.5   808.6    0.00     787    82.2
 242   14:30   84.8    12   12.1   192     24.4   808.5    0.00     862    82.5
 242   14:40   85.9    12   13.9   222     21.1   808.4    0.00     839    82.6
 242   14:50   85.5    11   15.0   216     22.7   808.3    0.00     782    82.7
 242   15:00   85.3    11   14.7   226     22.0   808.3    0.00     790    82.8
 242   15:10   84.5    12   13.5   187     22.4   808.3    0.00     386    83.0
 242   15:20   83.4    12   11.9   183     19.1   808.2    0.00     279    82.8
 242   15:30   83.1    12   13.8   202     18.9   808.3    0.00     226    82.5
 242   15:40   82.5    13   12.8   209     17.2   808.2    0.00     169    82.2
 242   15:50   82.1    13    7.1   222     13.0   808.2    0.00     144    81.9
 242   16:00   81.9    13    5.9   195     10.6   808.1    0.00     122    81.6
 242   16:10   81.7    13    8.7   201     16.0   808.0    0.00      93    81.2
 242   16:20   81.8    13    8.3   196     11.2   808.0    0.00      79    80.9
 242   16:30   81.3    14   10.2   187     15.0   808.0    0.00      74    80.6
 242   16:40   81.6    14    8.6   190     12.1   808.0    0.00     209    80.3
 242   16:50   82.6    13    6.6   196      9.3   808.0    0.00     215    80.2
 242   17:00   81.8    13    3.6   168      6.7   807.8    0.00      72    80.2
 242   17:10   80.9    14    6.2   179     10.4   807.8    0.00      46    79.9
 242   17:20   80.0    14    7.9   210     12.1   807.8    0.00      34    79.6
 242   17:30   79.9    14    7.6   248     10.6   807.9    0.00      37    79.4
 242   17:40   79.7    14    7.7   247     11.2   807.8    0.00      41    79.1
 242   17:50   79.5    14    8.0   249     12.1   807.9    0.00      33    78.9
 242   18:00   79.2    15    6.3   266     10.4   807.9    0.00      32    78.6
 242   18:10   77.8    19    7.9   274     11.1   808.0    0.00      10    78.3
 242   18:20   76.6    20    8.4   304     12.9   808.0    0.00       7    78.0
 242   18:30   76.1    20    8.5   321     10.7   808.0    0.00       1    77.6
 242   18:40   75.1    20    5.8   346      8.6   808.2    0.00       0    77.3
 242   18:50   74.1    21    5.4     5      8.1   808.1    0.00       0    77.0
 242   19:00   74.1    22    6.6     9      9.2   808.3    0.00       0    76.7
 242   19:10   74.8    21    5.5    19      7.2   808.4    0.00       0    76.5
 242   19:20   74.8    21    5.9   313      9.7   808.6    0.00       0    76.4
 242   19:30   74.5    21    5.4   278      8.8   808.8    0.00       0    76.2
 242   19:40   74.4    21    2.7   313      4.6   808.9    0.00       0    75.9
 242   19:50   73.1    20   13.1   278     26.6   809.1    0.00       0    75.7
 242   20:00   72.6    17   13.8   276     20.9   809.2    0.00       0    75.5
 242   20:10   72.3    16   13.4   275     17.4   809.3    0.00       0    75.2
 242   20:20   72.4    16   11.4   296     16.8   809.7    0.00       0    74.9
 242   20:30   71.9    18    9.8   319     14.0   809.8    0.00       0    74.6
 242   20:40   70.6    20    5.9   339      8.3   809.8    0.00       0    74.4
 242   20:50   69.3    21    6.6   343     10.3   809.8    0.00       0    74.2
 242   21:00   69.3    19    8.2   360     11.3   809.8    0.00       0    73.9
 242   21:10   69.0    19    7.4     1     10.7   809.8    0.00       0    73.7
 242   21:20   67.9    20    3.3   340      6.5   809.9    0.00       0    73.4
 242   21:30   66.0    22    4.1   254      5.5   810.0    0.00       0    73.2
 242   21:40   65.1    23    6.6   273      8.3   810.1    0.00       0    73.0
 242   21:50   65.0    23    6.4   300      8.8   810.2    0.00       0    72.7
 242   22:00   64.0    24    5.8   265      8.6   810.3    0.00       0    72.3
 242   22:10   65.5    22    5.0   326      9.5   810.4    0.00       0    72.1
 242   22:20   65.9    22    7.2   344      9.9   810.4    0.00       0    71.8
 242   22:30   64.8    24    6.1   353      7.7   810.6    0.00       0    71.6
 242   22:40   64.7    24    6.5   340     11.6   810.8    0.00       0    71.4
 242   22:50   63.8    25    4.4   337      6.7   810.9    0.00       0    71.2
 242   23:00   64.2    25    4.4     5      6.8   811.0    0.00       0    71.0
 242   23:10   63.7    25    3.2   353      6.6   811.1    0.00       0    70.9
 242   23:20   63.2    26    1.0   353      2.7   811.1    0.00       0    70.7
 242   23:30   63.9    25    3.4     3      5.5   811.0    0.00       0    70.5
 242   23:40   63.6    25    2.7    15      4.9   811.1    0.00       0    70.3
 242   23:50   61.2    28    2.9   179      5.0   811.1    0.00       0    70.2
 243    0:00   58.1    30    3.1   139      5.1   811.2    0.00       0    69.9
 243    0:10   57.8    31    1.5   166      3.8   811.2    0.00       0    69.7
 243    0:20   58.1    30    1.1   135      4.2   811.3    0.00       0    69.5
 243    0:30   56.8    30    2.9   127      4.7   811.4    0.00       0    69.3
 243    0:40   55.5    31    3.8   142      6.6   811.4    0.00       1    69.0
 243    0:50   55.6    30    3.4   137      5.5   811.3    0.00       0    68.7
 243    1:00   55.2    32    2.5   152      5.5   811.2    0.00       1    68.5
 243    1:10   53.4    34    4.1   144      6.9   811.1    0.00       0    68.3
 243    1:20   51.9    36    5.5   147      8.8   811.1    0.00       0    68.0
 243    1:30   51.2    35    6.4   151      9.2   811.2    0.00       1    67.7
 243    1:40   49.3    40    6.2   150      9.0   811.3    0.00       0    67.4
 243    1:50   48.7    40    6.1   142      8.4   811.3    0.00       0    67.0
 243    2:00   47.8    42    7.6   153     10.2   811.3    0.00       0    66.7
 243    2:10   47.8    44    7.7   157     10.6   811.3    0.00       0    66.3
 243    2:20   47.8    44    9.3   151     12.6   811.4    0.00       0    66.0
 243    2:30   47.0    46    9.0   150     11.7   811.5    0.00       0    65.7
 243    2:40   46.3    48    8.6   143     11.9   811.7    0.00       0    65.3
 243    2:50   46.8    46    8.5   146     11.8   811.7    0.00       1    65.0
 243    3:00   47.4    43    8.1   148     10.9   811.7    0.00       0    64.7
 243    3:10   47.2    43    9.7   146     13.3   811.8    0.00       0    64.4
 243    3:20   47.0    46    9.9   149     11.9   811.7    0.00       0    64.2
 243    3:30   46.6    47   10.8   150     13.4   811.7    0.00       1    63.9
 243    3:40   46.5    47   12.1   150     14.6   811.8    0.00       1    63.6
 243    3:50   46.7    46   10.9   146     14.1   811.8    0.00       0    63.4
 243    4:00   46.6    46    9.4   146     12.9   811.8    0.00       0    63.2
 243    4:10   46.0    47    9.8   147     13.5   811.9    0.00       0    62.9
 243    4:20   46.0    47    8.9   146     13.0   812.0    0.00       1    62.7
 243    4:30   46.7    45   11.0   152     14.6   812.1    0.00       0    62.5
 243    4:40   45.6    48    7.8   166     11.9   812.1    0.00       0    62.3
 243    4:50   43.4    52    9.7   167     14.5   812.2    0.00       0    62.1
 243    5:00   44.4    49   12.4   157     16.4   812.3    0.00       3    61.8
 243    5:10   46.5    44   12.2   160     16.7   812.4    0.00       7    61.6

Return to Ely, Nevada graphs page.


Western Regional Climate Center,wrcc@dri.edu